Time;durP1;ratioP1;P1;durP2;ratioP2;P2;SDS_P1;SDS_P2;PMS_P1;PMS_P2;Temp;Humidity;BMP_temperature;BMP_pressure;BME280_temperature;BME280_humidity;BME280_pressure;Samples;Min_cycle;Max_cycle;Signal;HPM_P1;HPM_P2
2022/04/21 00:02:22;;;;;;;9.95;4.53;;;;;;;;;;5051160;28;20122;-81
2022/04/21 00:04:48;;;;;;;8.68;4.82;;;;;;;;;;5069680;28;20032;-81
2022/04/21 00:07:14;;;;;;;9.27;4.97;;;;;;;;;;5068114;28;20033;-81
2022/04/21 00:09:40;;;;;;;10.32;5.53;;;;;;;;;;5051591;28;20052;-81
2022/04/21 00:12:06;;;;;;;9.63;5.65;;;;;;;;;;5069660;28;20122;-81
2022/04/21 00:14:32;;;;;;;10.10;5.20;;;;;;;;;;5069886;28;20040;-81
2022/04/21 00:16:58;;;;;;;9.88;5.15;;;;;;;;;;5068256;28;20098;-81
2022/04/21 00:19:25;;;;;;;7.63;4.78;;;;;;;;;;5051370;28;20045;-80
2022/04/21 00:24:36;;;;;;;11.07;5.55;;;;;;;;;;5068027;28;20041;-81
2022/04/21 00:27:03;;;;;;;9.00;5.00;;;;;;;;;;5068033;28;20537;-81
2022/04/21 00:29:29;;;;;;;8.38;4.72;;;;;;;;;;5068113;28;20098;-79
2022/04/21 00:31:55;;;;;;;9.25;5.43;;;;;;;;;;5068197;28;20392;-81
2022/04/21 00:34:22;;;;;;;8.70;5.28;;;;;;;;;;5068201;28;20040;-81
2022/04/21 00:36:48;;;;;;;10.55;5.40;;;;;;;;;;5068332;28;20072;-81
2022/04/21 00:39:14;;;;;;;12.02;5.20;;;;;;;;;;5067715;28;20044;-81
2022/04/21 00:41:41;;;;;;;11.10;5.40;;;;;;;;;;5069472;28;20090;-81
2022/04/21 00:44:08;;;;;;;11.50;5.85;;;;;;;;;;5067930;28;20090;-75
2022/04/21 00:46:37;;;;;;;9.82;6.00;;;;;;;;;;5052157;28;20120;-75
2022/04/21 00:49:04;;;;;;;8.43;5.32;;;;;;;;;;5054952;28;20484;-75
2022/04/21 00:51:31;;;;;;;8.55;5.03;;;;;;;;;;5071579;28;20526;-76
2022/04/21 00:53:57;;;;;;;10.20;5.82;;;;;;;;;;5054527;28;20051;-75
2022/04/21 00:56:24;;;;;;;9.45;5.75;;;;;;;;;;5071897;28;20061;-75
2022/04/21 00:58:51;;;;;;;8.82;5.63;;;;;;;;;;5071370;28;20037;-75
2022/04/21 01:04:02;;;;;;;11.90;6.00;;;;;;;;;;5071213;28;20080;-75
2022/04/21 01:06:28;;;;;;;12.32;6.22;;;;;;;;;;5071253;28;20036;-75
2022/04/21 01:08:54;;;;;;;12.55;6.47;;;;;;;;;;5070883;28;20036;-75
2022/04/21 01:11:21;;;;;;;12.20;6.32;;;;;;;;;;5071551;28;20076;-75
2022/04/21 01:13:47;;;;;;;10.65;6.03;;;;;;;;;;5071321;28;20044;-75
2022/04/21 01:16:14;;;;;;;14.90;6.10;;;;;;;;;;5070831;28;20492;-75
2022/04/21 01:18:43;;;;;;;9.18;5.95;;;;;;;;;;5054504;28;20530;-76
2022/04/21 01:21:09;;;;;;;10.68;6.05;;;;;;;;;;5071068;28;20052;-75
2022/04/21 01:23:35;;;;;;;9.73;6.10;;;;;;;;;;5071209;28;20412;-75
2022/04/21 01:26:02;;;;;;;9.95;5.90;;;;;;;;;;5070569;28;20099;-75
2022/04/21 01:28:30;;;;;;;9.57;6.32;;;;;;;;;;5071019;28;20071;-75
2022/04/21 01:30:56;;;;;;;9.68;5.70;;;;;;;;;;5070490;28;20055;-75
2022/04/21 01:33:22;;;;;;;11.88;6.10;;;;;;;;;;5070722;28;20048;-75
2022/04/21 01:35:48;;;;;;;12.50;6.38;;;;;;;;;;5070746;28;20048;-75
2022/04/21 01:41:11;;;;;;;12.18;6.18;;;;;;;;;;5070737;28;20568;-75
2022/04/21 01:43:43;;;;;;;11.60;6.50;;;;;;;;;;5069900;28;20040;-75
2022/04/21 01:46:09;;;;;;;11.32;6.75;;;;;;;;;;5068410;28;20075;-75
2022/04/21 01:48:37;;;;;;;10.43;6.93;;;;;;;;;;5070624;28;20050;-75
2022/04/21 01:51:03;;;;;;;11.30;6.53;;;;;;;;;;5053707;28;20049;-75
2022/04/21 01:53:29;;;;;;;12.20;6.88;;;;;;;;;;5071650;28;20043;-75
2022/04/21 01:55:55;;;;;;;13.35;7.50;;;;;;;;;;5071369;28;20121;-81
2022/04/21 01:58:21;;;;;;;12.00;6.75;;;;;;;;;;5069626;28;20110;-81
2022/04/21 02:00:49;;;;;;;11.05;6.78;;;;;;;;;;5070042;28;20035;-81
2022/04/21 02:03:15;;;;;;;11.43;7.18;;;;;;;;;;5067755;28;20037;-81
2022/04/21 02:05:41;;;;;;;11.63;6.93;;;;;;;;;;5070919;28;20037;-81
2022/04/21 02:08:07;;;;;;;13.23;7.40;;;;;;;;;;5069544;28;20047;-80
2022/04/21 02:10:33;;;;;;;15.18;7.25;;;;;;;;;;5070125;28;20059;-80
2022/04/21 02:13:00;;;;;;;13.73;7.93;;;;;;;;;;5053356;28;20048;-80
2022/04/21 02:15:26;;;;;;;13.35;7.20;;;;;;;;;;5053801;28;20040;-81
2022/04/21 02:17:52;;;;;;;10.13;6.50;;;;;;;;;;5069634;28;20048;-81
2022/04/21 02:20:18;;;;;;;12.55;7.53;;;;;;;;;;5070061;28;20036;-75
2022/04/21 02:22:45;;;;;;;11.48;7.50;;;;;;;;;;5053532;28;20047;-81
2022/04/21 02:25:12;;;;;;;13.68;7.35;;;;;;;;;;5071576;28;20400;-81
2022/04/21 02:27:39;;;;;;;13.63;7.80;;;;;;;;;;5069834;28;20412;-81
2022/04/21 02:30:06;;;;;;;14.73;7.38;;;;;;;;;;5052591;28;20036;-82
2022/04/21 02:32:32;;;;;;;13.77;7.47;;;;;;;;;;5068433;28;20076;-75
2022/04/21 02:34:58;;;;;;;15.25;7.47;;;;;;;;;;5069498;28;20036;-75
2022/04/21 02:37:25;;;;;;;14.10;8.02;;;;;;;;;;5069432;28;20036;-75
2022/04/21 02:39:51;;;;;;;12.70;8.00;;;;;;;;;;5069540;28;20099;-75
2022/04/21 02:42:21;;;;;;;11.23;6.60;;;;;;;;;;5036725;28;20041;-75
2022/04/21 02:44:48;;;;;;;12.20;7.32;;;;;;;;;;5069543;28;20037;-75
2022/04/21 02:47:14;;;;;;;14.55;7.93;;;;;;;;;;5069447;28;20042;-75
2022/04/21 02:49:45;;;;;;;14.27;7.93;;;;;;;;;;5069426;28;20041;-75
2022/04/21 02:52:12;;;;;;;13.95;7.95;;;;;;;;;;5052354;28;20399;-75
2022/04/21 02:57:24;;;;;;;12.85;7.80;;;;;;;;;;5069881;28;20048;-75
2022/04/21 02:59:56;;;;;;;13.32;7.68;;;;;;;;;;5069336;28;20489;-80
2022/04/21 03:02:23;;;;;;;14.73;8.20;;;;;;;;;;5069288;28;20369;-82
2022/04/21 03:04:51;;;;;;;12.98;7.88;;;;;;;;;;5069196;28;20032;-82
2022/04/21 03:07:17;;;;;;;12.70;8.02;;;;;;;;;;5070402;28;20430;-82
2022/04/21 03:09:44;;;;;;;14.20;8.40;;;;;;;;;;5068455;28;20044;-81
2022/04/21 03:12:10;;;;;;;14.80;8.75;;;;;;;;;;5068839;28;20098;-82
2022/04/21 03:14:37;;;;;;;15.00;9.20;;;;;;;;;;5070224;28;20039;-81
2022/04/21 03:17:06;;;;;;;14.15;8.60;;;;;;;;;;5070244;28;20094;-81
2022/04/21 03:19:33;;;;;;;16.85;8.73;;;;;;;;;;5068789;28;20047;-82
2022/04/21 03:24:44;;;;;;;14.90;8.60;;;;;;;;;;5068904;28;20033;-81
2022/04/21 03:27:10;;;;;;;16.55;9.32;;;;;;;;;;5069446;28;20515;-81
2022/04/21 03:29:39;;;;;;;16.08;9.10;;;;;;;;;;5069126;28;20051;-81
2022/04/21 03:32:09;;;;;;;19.23;9.13;;;;;;;;;;5068974;28;20144;-81
2022/04/21 03:34:42;;;;;;;15.35;9.40;;;;;;;;;;5070159;28;20111;-81
2022/04/21 03:37:09;;;;;;;13.35;8.30;;;;;;;;;;5068496;28;20032;-81
2022/04/21 03:39:36;;;;;;;19.85;9.52;;;;;;;;;;5068875;28;20071;-80
2022/04/21 03:42:03;;;;;;;15.90;9.50;;;;;;;;;;5069720;28;20090;-80
2022/04/21 03:44:29;;;;;;;15.52;9.95;;;;;;;;;;5069883;28;20427;-80
2022/04/21 03:46:58;;;;;;;19.50;10.73;;;;;;;;;;5068414;28;20042;-80
2022/04/21 03:49:28;;;;;;;18.67;9.90;;;;;;;;;;5068522;28;20127;-80
2022/04/21 03:51:54;;;;;;;18.60;10.50;;;;;;;;;;5051320;28;20041;-79
2022/04/21 03:54:20;;;;;;;18.27;9.90;;;;;;;;;;5068910;28;20111;-80
2022/04/21 03:56:46;;;;;;;15.52;8.68;;;;;;;;;;5068173;28;20053;-80
2022/04/21 03:59:12;;;;;;;16.23;9.90;;;;;;;;;;5067882;28;20057;-79
2022/04/21 04:01:38;;;;;;;17.48;10.18;;;;;;;;;;5047441;28;20135;-75
2022/04/21 04:04:04;;;;;;;16.88;8.60;;;;;;;;;;5067097;28;20742;-74
2022/04/21 04:12:00;;;;;;;18.58;10.68;;;;;;;;;;5066917;28;20097;-74
2022/04/21 04:14:26;;;;;;;20.02;11.35;;;;;;;;;;5068139;28;20048;-74
2022/04/21 04:16:52;;;;;;;18.67;11.02;;;;;;;;;;5069678;28;20041;-76
2022/04/21 04:19:18;;;;;;;17.55;9.80;;;;;;;;;;5067862;28;20045;-74
2022/04/21 04:21:44;;;;;;;17.25;9.73;;;;;;;;;;5052697;28;20036;-73
2022/04/21 04:24:11;;;;;;;16.40;9.68;;;;;;;;;;5055056;28;20036;-74
2022/04/21 04:26:37;;;;;;;21.77;10.25;;;;;;;;;;5073216;28;20040;-74
2022/04/21 04:29:03;;;;;;;21.45;10.07;;;;;;;;;;5072676;28;20045;-74
2022/04/21 04:31:29;;;;;;;18.55;10.45;;;;;;;;;;5071337;28;20040;-74
2022/04/21 04:33:56;;;;;;;18.52;10.15;;;;;;;;;;5054832;28;20480;-74
2022/04/21 04:36:22;;;;;;;16.85;10.23;;;;;;;;;;5055221;28;20442;-74
2022/04/21 04:38:48;;;;;;;18.10;10.27;;;;;;;;;;5071662;28;20042;-74
2022/04/21 04:44:00;;;;;;;17.05;9.55;;;;;;;;;;5072640;28;20040;-74
2022/04/21 04:46:35;;;;;;;19.48;9.68;;;;;;;;;;5072860;28;20043;-74
2022/04/21 04:49:06;;;;;;;14.57;7.90;;;;;;;;;;5071230;28;20036;-74
2022/04/21 04:51:37;;;;;;;15.40;9.90;;;;;;;;;;5054807;28;20080;-74
2022/04/21 04:54:07;;;;;;;16.17;10.13;;;;;;;;;;5054196;28;20083;-74
2022/04/21 04:56:33;;;;;;;19.98;10.43;;;;;;;;;;5070900;28;20053;-74
2022/04/21 04:59:00;;;;;;;18.83;9.90;;;;;;;;;;5070729;28;20037;-80
2022/04/21 05:01:30;;;;;;;16.30;9.63;;;;;;;;;;5071488;28;20364;-80
2022/04/21 05:04:03;;;;;;;14.95;9.18;;;;;;;;;;5072393;28;20033;-80
2022/04/21 05:06:29;;;;;;;14.77;9.45;;;;;;;;;;5072233;28;20602;-81
2022/04/21 05:08:57;;;;;;;15.70;8.40;;;;;;;;;;5054640;28;20400;-80
2022/04/21 05:11:23;;;;;;;12.98;9.05;;;;;;;;;;5072947;28;20041;-80
2022/04/21 05:13:49;;;;;;;16.63;9.10;;;;;;;;;;5072619;28;20123;-80
2022/04/21 05:16:15;;;;;;;15.35;9.23;;;;;;;;;;5072394;28;20051;-80
2022/04/21 05:18:41;;;;;;;15.82;9.10;;;;;;;;;;5054395;28;20127;-79
2022/04/21 05:21:07;;;;;;;17.98;9.23;;;;;;;;;;5053858;28;20036;-80
2022/04/21 05:23:34;;;;;;;16.58;8.65;;;;;;;;;;5072080;28;20102;-80
2022/04/21 05:26:01;;;;;;;12.50;8.40;;;;;;;;;;5072469;28;20037;-81
2022/04/21 05:28:27;;;;;;;14.23;8.10;;;;;;;;;;5072393;28;20502;-80
2022/04/21 05:30:57;;;;;;;13.45;8.80;;;;;;;;;;5070828;28;20037;-80
2022/04/21 05:33:24;;;;;;;12.38;8.40;;;;;;;;;;5070386;28;20056;-80
2022/04/21 05:35:51;;;;;;;12.35;7.88;;;;;;;;;;5070535;28;20036;-75
2022/04/21 05:38:17;;;;;;;15.13;9.07;;;;;;;;;;5070348;28;20044;-75
2022/04/21 05:40:43;;;;;;;13.85;9.20;;;;;;;;;;5071839;28;20037;-75
2022/04/21 05:43:12;;;;;;;15.98;9.13;;;;;;;;;;5070785;28;20515;-75
2022/04/21 05:45:38;;;;;;;13.55;8.77;;;;;;;;;;5071407;28;20051;-75
2022/04/21 05:48:05;;;;;;;12.32;8.38;;;;;;;;;;5070542;28;20040;-74
2022/04/21 05:50:32;;;;;;;12.60;7.88;;;;;;;;;;5053581;28;20374;-75
2022/04/21 05:53:01;;;;;;;11.90;7.47;;;;;;;;;;5070011;28;20048;-75
2022/04/21 05:55:28;;;;;;;10.63;7.30;;;;;;;;;;5069944;28;20169;-75
2022/04/21 05:57:55;;;;;;;11.52;7.65;;;;;;;;;;5071034;28;20063;-74
2022/04/21 06:00:21;;;;;;;11.55;7.93;;;;;;;;;;5070022;28;20778;-75
2022/04/21 06:02:47;;;;;;;10.57;7.85;;;;;;;;;;5053213;28;20037;-81
2022/04/21 06:05:14;;;;;;;12.95;7.82;;;;;;;;;;5071812;28;20472;-80
2022/04/21 06:07:40;;;;;;;13.63;7.93;;;;;;;;;;5070372;28;20466;-78
2022/04/21 06:10:06;;;;;;;13.48;8.23;;;;;;;;;;5071758;28;20102;-77
2022/04/21 06:12:33;;;;;;;11.43;7.72;;;;;;;;;;5070140;28;20174;-77
2022/04/21 06:14:59;;;;;;;11.27;7.78;;;;;;;;;;5069913;28;20045;-79
2022/04/21 06:17:25;;;;;;;11.50;7.80;;;;;;;;;;5070076;28;20067;-78
2022/04/21 06:19:51;;;;;;;12.60;7.35;;;;;;;;;;5071081;28;20522;-75
2022/04/21 06:22:17;;;;;;;9.25;6.80;;;;;;;;;;5069534;28;20039;-76
2022/04/21 06:24:43;;;;;;;12.65;7.22;;;;;;;;;;5053468;28;20036;-76
2022/04/21 06:27:09;;;;;;;12.05;7.32;;;;;;;;;;5069669;28;20042;-77
2022/04/21 06:29:36;;;;;;;11.70;6.60;;;;;;;;;;5069721;28;20487;-81
2022/04/21 06:32:02;;;;;;;8.23;6.00;;;;;;;;;;5070689;28;20040;-75
2022/04/21 06:34:28;;;;;;;8.85;6.20;;;;;;;;;;5069777;28;20051;-78
2022/04/21 06:36:54;;;;;;;10.02;6.53;;;;;;;;;;5069597;28;20056;-79
2022/04/21 06:39:20;;;;;;;9.10;6.55;;;;;;;;;;5069441;28;20041;-75
2022/04/21 06:41:46;;;;;;;7.57;6.03;;;;;;;;;;5069418;28;20047;-76
2022/04/21 06:49:42;;;;;;;8.95;6.10;;;;;;;;;;5068570;28;20488;-77
2022/04/21 06:52:08;;;;;;;7.38;5.70;;;;;;;;;;5069366;28;20458;-79
2022/04/21 06:54:34;;;;;;;8.18;5.32;;;;;;;;;;5053114;28;20052;-80
2022/04/21 06:57:00;;;;;;;7.68;5.20;;;;;;;;;;5069577;28;20408;-76
2022/04/21 06:59:26;;;;;;;7.47;5.28;;;;;;;;;;5070825;28;20047;-78
2022/04/21 07:01:52;;;;;;;6.82;4.78;;;;;;;;;;5069387;28;20454;-75
2022/04/21 07:04:20;;;;;;;8.90;4.80;;;;;;;;;;5069996;28;20488;-77
2022/04/21 07:06:46;;;;;;;7.70;5.15;;;;;;;;;;5069321;28;20054;-75
2022/04/21 07:09:12;;;;;;;8.18;4.32;;;;;;;;;;5069209;28;20465;-75
2022/04/21 07:11:38;;;;;;;5.13;4.07;;;;;;;;;;5070624;28;20484;-75
2022/04/21 07:14:05;;;;;;;5.28;3.90;;;;;;;;;;5070448;28;20431;-78
2022/04/21 07:16:31;;;;;;;7.03;4.20;;;;;;;;;;5069316;28;20041;-77
2022/04/21 07:18:57;;;;;;;5.85;4.03;;;;;;;;;;5068185;28;20044;-75
2022/04/21 07:21:23;;;;;;;4.72;3.78;;;;;;;;;;5068630;28;20037;-75
2022/04/21 07:23:49;;;;;;;5.70;4.10;;;;;;;;;;5052457;28;20103;-76
2022/04/21 07:26:15;;;;;;;6.40;3.70;;;;;;;;;;5051958;28;20036;-77
2022/04/21 07:28:44;;;;;;;5.88;3.38;;;;;;;;;;5069061;28;20046;-75
2022/04/21 07:31:10;;;;;;;6.35;3.70;;;;;;;;;;5068797;28;20040;-75
2022/04/21 07:33:36;;;;;;;5.00;3.30;;;;;;;;;;5069378;28;20127;-75
2022/04/21 07:36:03;;;;;;;4.43;2.90;;;;;;;;;;5068630;28;20036;-77
2022/04/21 07:38:31;;;;;;;5.05;2.95;;;;;;;;;;5068949;28;20492;-75
2022/04/21 07:40:57;;;;;;;4.18;2.60;;;;;;;;;;5068783;28;20059;-76
2022/04/21 07:43:23;;;;;;;3.78;2.88;;;;;;;;;;5052597;28;20040;-85
2022/04/21 07:45:49;;;;;;;5.65;2.83;;;;;;;;;;5068494;28;20086;-78
2022/04/21 07:48:16;;;;;;;4.88;2.80;;;;;;;;;;5069795;28;20047;-83
2022/04/21 07:50:42;;;;;;;5.78;3.03;;;;;;;;;;5070010;28;20044;-79
2022/04/21 07:53:14;;;;;;;3.80;2.42;;;;;;;;;;5052093;28;20416;-84
2022/04/21 07:55:45;;;;;;;4.78;2.53;;;;;;;;;;5069283;28;20090;-83
2022/04/21 07:58:11;;;;;;;3.88;2.55;;;;;;;;;;5074861;28;20052;-78
2022/04/21 08:00:38;;;;;;;4.63;2.35;;;;;;;;;;5059092;28;20060;-82
2022/04/21 08:03:05;;;;;;;4.82;2.13;;;;;;;;;;5075747;28;20047;-82
2022/04/21 08:05:31;;;;;;;3.65;2.35;;;;;;;;;;5076385;28;20047;-79
2022/04/21 08:07:58;;;;;;;3.70;2.30;;;;;;;;;;5059559;28;20048;-84
2022/04/21 08:10:25;;;;;;;5.13;2.30;;;;;;;;;;5075387;28;20560;-74
2022/04/21 08:12:52;;;;;;;3.40;2.30;;;;;;;;;;5072570;28;20056;-76
2022/04/21 08:15:46;;;;;;;4.20;2.55;;;;;;;;;;5075007;28;20048;-75
2022/04/21 08:18:13;;;;;;;3.88;2.25;;;;;;;;;;5072815;28;20052;-76
2022/04/21 08:20:40;;;;;;;4.57;2.20;;;;;;;;;;5076455;28;20068;-75
2022/04/21 08:23:06;;;;;;;3.95;2.20;;;;;;;;;;5074898;28;20051;-75
2022/04/21 08:33:46;;;;;;;6.25;2.20;;;;;;;;;;5074143;28;20040;-75
2022/04/21 08:36:12;;;;;;;4.57;2.30;;;;;;;;;;5074560;28;20029;-80
2022/04/21 08:38:38;;;;;;;3.85;2.38;;;;;;;;;;5076596;28;20365;-76
2022/04/21 08:41:06;;;;;;;3.55;2.42;;;;;;;;;;5057633;28;20043;-78
2022/04/21 08:43:36;;;;;;;4.88;2.28;;;;;;;;;;5074547;28;20063;-76
2022/04/21 08:46:03;;;;;;;3.53;2.20;;;;;;;;;;5074499;28;20124;-77
2022/04/21 08:48:30;;;;;;;3.95;2.30;;;;;;;;;;5075902;28;20114;-76
2022/04/21 08:50:57;;;;;;;8.25;2.45;;;;;;;;;;5075933;28;20079;-75
2022/04/21 08:53:24;;;;;;;4.80;2.47;;;;;;;;;;5074422;28;20044;-75
2022/04/21 08:55:51;;;;;;;5.55;2.33;;;;;;;;;;5057931;28;20077;-75
2022/04/21 08:58:17;;;;;;;3.53;2.30;;;;;;;;;;5074448;28;20060;-77
2022/04/21 09:00:44;;;;;;;5.32;2.95;;;;;;;;;;5058323;28;20040;-75
2022/04/21 09:03:11;;;;;;;5.40;2.45;;;;;;;;;;5074409;28;20047;-76
2022/04/21 09:05:38;;;;;;;4.53;2.20;;;;;;;;;;5076125;28;20431;-76
2022/04/21 09:08:04;;;;;;;6.35;2.42;;;;;;;;;;5073064;28;20059;-76
2022/04/21 09:10:32;;;;;;;5.63;2.40;;;;;;;;;;5072025;28;20072;-76
2022/04/21 09:12:59;;;;;;;3.00;2.20;;;;;;;;;;5071908;28;20036;-75
2022/04/21 09:15:27;;;;;;;3.22;2.28;;;;;;;;;;5072138;28;20067;-78
2022/04/21 09:17:56;;;;;;;4.38;2.50;;;;;;;;;;5072290;28;20182;-74
2022/04/21 09:20:26;;;;;;;4.65;2.20;;;;;;;;;;5071672;28;20044;-76
2022/04/21 09:23:00;;;;;;;4.57;2.50;;;;;;;;;;5071869;28;20043;-75
2022/04/21 09:25:28;;;;;;;4.63;2.47;;;;;;;;;;5055084;28;20036;-79
2022/04/21 09:27:54;;;;;;;4.00;2.58;;;;;;;;;;5072788;28;20040;-82
2022/04/21 09:30:20;;;;;;;5.30;2.25;;;;;;;;;;5071618;28;20046;-78
2022/04/21 09:32:57;;;;;;;3.80;2.25;;;;;;;;;;5071862;28;20115;-82
2022/04/21 09:35:26;;;;;;;5.22;2.58;;;;;;;;;;5072462;28;20044;-81
2022/04/21 09:37:53;;;;;;;4.13;2.60;;;;;;;;;;5073888;28;20040;-83
2022/04/21 09:40:20;;;;;;;3.45;2.28;;;;;;;;;;5072895;28;20488;-82
2022/04/21 09:42:56;;;;;;;3.33;2.20;;;;;;;;;;5055640;28;20048;-81
2022/04/21 09:48:22;;;;;;;5.47;2.15;;;;;;;;;;5071914;28;20503;-76
2022/04/21 09:50:56;;;;;;;6.18;2.58;;;;;;;;;;5068552;28;20113;-75
2022/04/21 09:53:23;;;;;;;6.25;2.22;;;;;;;;;;5069901;28;20048;-77
2022/04/21 09:55:50;;;;;;;4.00;2.50;;;;;;;;;;5070582;28;20447;-75
2022/04/21 09:58:17;;;;;;;4.68;2.38;;;;;;;;;;5070741;28;20048;-77
2022/04/21 10:00:44;;;;;;;5.10;2.92;;;;;;;;;;5071377;28;20080;-74
2022/04/21 10:03:10;;;;;;;4.07;2.67;;;;;;;;;;5053935;28;20154;-74
2022/04/21 10:05:39;;;;;;;4.05;2.63;;;;;;;;;;5070313;28;20075;-73
2022/04/21 10:08:06;;;;;;;4.80;2.53;;;;;;;;;;5053614;28;20046;-74
2022/04/21 10:10:33;;;;;;;5.88;2.40;;;;;;;;;;5070491;28;20040;-75
2022/04/21 10:13:00;;;;;;;4.15;2.58;;;;;;;;;;5070548;28;20052;-77
2022/04/21 10:15:27;;;;;;;4.25;2.67;;;;;;;;;;5070302;28;20106;-74
2022/04/21 10:17:53;;;;;;;5.45;2.30;;;;;;;;;;5070210;28;20052;-74
2022/04/21 10:20:26;;;;;;;5.68;2.35;;;;;;;;;;5052903;28;20095;-78
2022/04/21 10:22:52;;;;;;;5.70;2.20;;;;;;;;;;5071864;28;20083;-81
2022/04/21 10:25:19;;;;;;;3.08;2.20;;;;;;;;;;5070287;28;20051;-78
2022/04/21 10:27:47;;;;;;;4.43;2.40;;;;;;;;;;5070723;28;20049;-80
2022/04/21 10:30:28;;;;;;;6.35;2.38;;;;;;;;;;5070863;28;20063;-81
2022/04/21 10:32:59;;;;;;;8.50;2.20;;;;;;;;;;5071242;28;20037;-83
2022/04/21 10:35:27;;;;;;;3.58;2.00;;;;;;;;;;5071708;28;20070;-76
2022/04/21 10:38:12;;;;;;;3.25;1.98;;;;;;;;;;5070056;28;20109;-78
2022/04/21 10:40:54;;;;;;;4.55;2.13;;;;;;;;;;5050500;28;20502;-74
2022/04/21 10:43:20;;;;;;;5.15;2.20;;;;;;;;;;5070082;28;20383;-77
2022/04/21 10:46:01;;;;;;;4.55;2.20;;;;;;;;;;5070154;28;20036;-75
2022/04/21 10:48:41;;;;;;;5.88;2.53;;;;;;;;;;5053548;28;20404;-75
2022/04/21 10:51:07;;;;;;;5.53;2.33;;;;;;;;;;5070742;28;20048;-73
2022/04/21 11:00:04;;;;;;;3.25;2.20;;;;;;;;;;5065514;28;20041;-81
2022/04/21 11:02:44;;;;;;;4.38;2.63;;;;;;;;;;5064750;28;20198;-77
2022/04/21 11:05:22;;;;;;;4.10;2.70;;;;;;;;;;5069587;28;20074;-79
2022/04/21 11:07:59;;;;;;;3.55;1.90;;;;;;;;;;5070017;28;20519;-78
2022/04/21 11:10:45;;;;;;;6.32;2.03;;;;;;;;;;5069638;28;20488;-79
2022/04/21 11:13:34;;;;;;;4.50;2.08;;;;;;;;;;5070208;28;20330;-77
2022/04/21 11:16:00;;;;;;;4.20;2.20;;;;;;;;;;5068667;28;20484;-75
2022/04/21 11:18:26;;;;;;;3.35;1.90;;;;;;;;;;5052592;28;20052;-73
2022/04/21 11:20:52;;;;;;;4.07;2.28;;;;;;;;;;5070845;28;20040;-75
2022/04/21 11:23:26;;;;;;;4.55;2.08;;;;;;;;;;5069302;28;20033;-74
2022/04/21 11:25:52;;;;;;;3.58;2.40;;;;;;;;;;5068970;28;20543;-75
2022/04/21 11:28:25;;;;;;;2.70;1.85;;;;;;;;;;5068881;28;20135;-75
2022/04/21 11:30:57;;;;;;;4.28;1.90;;;;;;;;;;5070089;28;20044;-74
2022/04/21 11:33:23;;;;;;;5.00;2.00;;;;;;;;;;5067453;28;20119;-74
2022/04/21 11:35:49;;;;;;;4.90;2.13;;;;;;;;;;5069494;28;20476;-74
2022/04/21 11:38:15;;;;;;;4.38;2.00;;;;;;;;;;5068522;28;20044;-77
2022/04/21 11:40:44;;;;;;;5.88;2.28;;;;;;;;;;5070673;28;20041;-75
2022/04/21 11:43:17;;;;;;;3.85;2.20;;;;;;;;;;5070011;28;20074;-74
2022/04/21 11:45:54;;;;;;;3.90;2.53;;;;;;;;;;5069184;28;20391;-75
2022/04/21 11:48:21;;;;;;;4.97;2.67;;;;;;;;;;5068644;28;20101;-77
2022/04/21 11:50:49;;;;;;;3.83;2.33;;;;;;;;;;5070648;28;20037;-77
2022/04/21 11:53:18;;;;;;;5.60;2.42;;;;;;;;;;5069894;28;20040;-77
2022/04/21 11:55:45;;;;;;;4.85;2.42;;;;;;;;;;5069870;28;20036;-77
2022/04/21 11:58:11;;;;;;;6.13;2.80;;;;;;;;;;5068904;28;20404;-75
2022/04/21 12:08:53;;;;;;;3.65;2.65;;;;;;;;;;5068591;28;20044;-76
2022/04/21 12:11:19;;;;;;;4.70;2.30;;;;;;;;;;5068619;28;20045;-80
2022/04/21 12:13:47;;;;;;;6.63;2.60;;;;;;;;;;5070207;28;20499;-83
2022/04/21 12:16:32;;;;;;;5.00;2.55;;;;;;;;;;5068526;28;20043;-79
2022/04/21 12:18:58;;;;;;;9.85;3.00;;;;;;;;;;5066734;28;20033;-80
2022/04/21 12:21:39;;;;;;;5.50;2.35;;;;;;;;;;5052144;28;20476;-79
2022/04/21 12:24:14;;;;;;;5.30;2.95;;;;;;;;;;5067003;28;20086;-80
2022/04/21 12:26:47;;;;;;;4.72;2.85;;;;;;;;;;5069286;28;20544;-82
2022/04/21 12:29:13;;;;;;;5.97;2.75;;;;;;;;;;5068739;28;20044;-74
2022/04/21 12:31:56;;;;;;;4.63;3.03;;;;;;;;;;5070248;28;20036;-75
2022/04/21 12:34:23;;;;;;;5.32;2.75;;;;;;;;;;5069831;28;20509;-76
2022/04/21 12:36:50;;;;;;;5.60;3.15;;;;;;;;;;5068654;28;20032;-74
2022/04/21 12:39:17;;;;;;;4.55;2.60;;;;;;;;;;5051472;28;20132;-76
2022/04/21 12:41:44;;;;;;;6.57;2.53;;;;;;;;;;5052091;28;20056;-74
2022/04/21 12:44:11;;;;;;;4.90;2.63;;;;;;;;;;5054803;28;20101;-82
2022/04/21 12:46:37;;;;;;;5.18;2.65;;;;;;;;;;5072181;28;20032;-82
2022/04/21 12:49:03;;;;;;;3.47;2.13;;;;;;;;;;5073079;28;20094;-78
2022/04/21 12:51:30;;;;;;;3.97;2.30;;;;;;;;;;5073478;28;20036;-79
2022/04/21 12:53:57;;;;;;;4.93;2.75;;;;;;;;;;5073636;28;20055;-82
2022/04/21 12:56:34;;;;;;;5.72;2.70;;;;;;;;;;5073150;28;20087;-79
2022/04/21 12:59:00;;;;;;;5.97;2.92;;;;;;;;;;5072327;28;20052;-82
2022/04/21 13:01:26;;;;;;;7.38;2.65;;;;;;;;;;5055628;28;20063;-82
2022/04/21 13:03:52;;;;;;;3.75;2.40;;;;;;;;;;5072017;28;20036;-79
2022/04/21 13:06:26;;;;;;;6.57;2.38;;;;;;;;;;5071804;28;20492;-78
2022/04/21 13:08:52;;;;;;;4.00;2.40;;;;;;;;;;5071910;28;20044;-81
2022/04/21 13:11:18;;;;;;;5.70;2.42;;;;;;;;;;5072118;28;20036;-80
2022/04/21 13:13:44;;;;;;;6.13;2.92;;;;;;;;;;5072249;28;20033;-78
2022/04/21 13:16:10;;;;;;;6.45;2.75;;;;;;;;;;5054631;28;20042;-78
2022/04/21 13:18:36;;;;;;;6.80;2.53;;;;;;;;;;5071415;28;20040;-83
2022/04/21 13:23:47;;;;;;;7.28;2.40;;;;;;;;;;5072626;28;20045;-76
2022/04/21 13:26:13;;;;;;;4.18;2.00;;;;;;;;;;5072714;28;20400;-75
2022/04/21 13:28:39;;;;;;;4.20;2.20;;;;;;;;;;5071514;28;20052;-76
2022/04/21 13:33:50;;;;;;;8.02;2.50;;;;;;;;;;5071214;28;20044;-75
2022/04/21 13:36:16;;;;;;;5.20;2.80;;;;;;;;;;5072125;28;20547;-75
2022/04/21 13:38:44;;;;;;;3.88;2.80;;;;;;;;;;5071184;28;20408;-74
2022/04/21 13:41:11;;;;;;;4.30;2.70;;;;;;;;;;5071980;28;20040;-74
2022/04/21 13:43:37;;;;;;;5.57;2.58;;;;;;;;;;5072409;28;20103;-81
2022/04/21 13:46:03;;;;;;;5.28;2.72;;;;;;;;;;5072726;28;20028;-83
2022/04/21 13:48:29;;;;;;;5.05;3.17;;;;;;;;;;5071345;28;20036;-77
2022/04/21 13:50:55;;;;;;;5.47;2.70;;;;;;;;;;5071886;28;20039;-82
2022/04/21 13:53:21;;;;;;;4.97;3.20;;;;;;;;;;5070521;28;20045;-80
2022/04/21 13:55:48;;;;;;;4.72;3.00;;;;;;;;;;5071531;28;20040;-82
2022/04/21 13:58:14;;;;;;;5.30;3.20;;;;;;;;;;5070728;28;20114;-83
2022/04/21 14:00:44;;;;;;;7.10;3.25;;;;;;;;;;5071136;28;20036;-80
2022/04/21 14:03:11;;;;;;;5.43;3.30;;;;;;;;;;5070893;28;20098;-81
2022/04/21 14:05:37;;;;;;;8.38;3.40;;;;;;;;;;5071204;28;20048;-75
2022/04/21 14:08:04;;;;;;;5.18;3.30;;;;;;;;;;5070242;28;20875;-77
2022/04/21 14:10:30;;;;;;;6.47;3.55;;;;;;;;;;5071317;28;20496;-75
2022/04/21 14:12:56;;;;;;;8.45;3.40;;;;;;;;;;5070594;28;20554;-77
2022/04/21 14:15:25;;;;;;;6.63;3.70;;;;;;;;;;5070002;28;20041;-74
2022/04/21 14:17:51;;;;;;;5.90;3.40;;;;;;;;;;5069758;28;20052;-77
2022/04/21 14:20:17;;;;;;;4.60;3.30;;;;;;;;;;5071158;28;20071;-76
2022/04/21 14:22:43;;;;;;;9.57;3.53;;;;;;;;;;5072015;28;20033;-77
2022/04/21 14:25:09;;;;;;;6.03;3.40;;;;;;;;;;5070312;28;20036;-84
2022/04/21 14:27:35;;;;;;;4.25;3.42;;;;;;;;;;5071757;28;20028;-81
2022/04/21 14:30:03;;;;;;;5.70;3.60;;;;;;;;;;5053220;28;20040;-79
2022/04/21 14:32:29;;;;;;;6.10;3.38;;;;;;;;;;5071470;28;20093;-81
2022/04/21 14:34:55;;;;;;;6.18;3.65;;;;;;;;;;5070251;28;20037;-81
2022/04/21 14:45:36;;;;;;;5.60;3.40;;;;;;;;;;5070992;28;20036;-76
2022/04/21 14:48:03;;;;;;;7.43;3.70;;;;;;;;;;5069731;28;20040;-75
2022/04/21 14:50:29;;;;;;;10.02;3.72;;;;;;;;;;5069238;28;20182;-75
2022/04/21 14:52:55;;;;;;;6.10;3.58;;;;;;;;;;5069765;28;20400;-75
2022/04/21 14:55:21;;;;;;;6.30;3.80;;;;;;;;;;5069687;28;20043;-76
2022/04/21 14:57:47;;;;;;;7.78;3.92;;;;;;;;;;5070253;28;20048;-83
2022/04/21 15:00:13;;;;;;;8.65;3.70;;;;;;;;;;5069731;28;20542;-78
2022/04/21 15:02:40;;;;;;;7.43;3.95;;;;;;;;;;5071238;28;20423;-80
2022/04/21 15:05:06;;;;;;;7.80;3.85;;;;;;;;;;5069998;28;20043;-84
2022/04/21 15:07:32;;;;;;;6.47;3.95;;;;;;;;;;5052671;28;20492;-81
2022/04/21 15:09:58;;;;;;;8.20;4.00;;;;;;;;;;5069788;28;20040;-75
2022/04/21 15:12:24;;;;;;;7.00;4.00;;;;;;;;;;5068694;28;20098;-77
2022/04/21 15:14:50;;;;;;;5.60;3.90;;;;;;;;;;5068919;28;20097;-75
2022/04/21 15:17:17;;;;;;;6.97;4.40;;;;;;;;;;5068885;28;20512;-75
2022/04/21 15:19:47;;;;;;;8.50;4.20;;;;;;;;;;5069022;28;20399;-83
2022/04/21 15:22:15;;;;;;;6.53;4.05;;;;;;;;;;5068994;28;20090;-78
2022/04/21 15:24:42;;;;;;;6.88;4.65;;;;;;;;;;5069516;28;20448;-81
2022/04/21 15:27:08;;;;;;;6.72;4.30;;;;;;;;;;5069673;28;20056;-82
2022/04/21 15:29:34;;;;;;;5.53;4.10;;;;;;;;;;5070714;28;20067;-79
2022/04/21 15:32:00;;;;;;;12.52;4.50;;;;;;;;;;5052532;28;20048;-78
2022/04/21 15:34:27;;;;;;;8.52;4.28;;;;;;;;;;5068982;28;20060;-78
2022/04/21 15:36:53;;;;;;;7.70;3.97;;;;;;;;;;5069999;28;20040;-78
2022/04/21 15:39:19;;;;;;;7.97;4.50;;;;;;;;;;5070093;28;20082;-82
2022/04/21 15:41:45;;;;;;;8.75;4.07;;;;;;;;;;5069353;28;20068;-81
2022/04/21 15:44:11;;;;;;;5.93;4.50;;;;;;;;;;5070595;28;20123;-81
2022/04/21 15:46:37;;;;;;;5.82;4.35;;;;;;;;;;5053569;28;20515;-79
2022/04/21 15:49:05;;;;;;;6.53;4.57;;;;;;;;;;5068583;28;20458;-78